Terminal Aerodrome Forecast
Issued by NWS Sterling, VA

Current Version | Previous Version | Text Only | Print | Product List | Glossary On
Versions: 1 2 3 4 5 6 7 8 9 10 11 12 13 14 15 16 17 18 19 20 21 22 23 24 25 26
000
FTUS41 KLWX 291445 AAA
TAFIAD
TAF AMD
KIAD 291445Z 2915/3018 09005KT P6SM SCT022 BKN090 BKN140
     FM291900 15007KT P6SM VCTS BKN050CB
     FM300100 19004KT P6SM BKN250
     FM301400 19008KT P6SM SCT090=

USA.gov is the U.S. government's official web portal to all federal, state and local government web resources and services.